sensor_id;sensor_type;location;lat;lon;timestamp;temperature;humidity
44117;DHT22;29781;49.480;8.512;2023-08-06T00:01:48;17.70;99.90
44117;DHT22;29781;49.480;8.512;2023-08-06T00:04:13;17.70;99.90
44117;DHT22;29781;49.480;8.512;2023-08-06T00:06:39;17.70;99.90
44117;DHT22;29781;49.480;8.512;2023-08-06T00:09:04;17.70;99.90
44117;DHT22;29781;49.480;8.512;2023-08-06T00:11:29;17.80;99.90
44117;DHT22;29781;49.480;8.512;2023-08-06T00:13:55;17.80;99.90
44117;DHT22;29781;49.480;8.512;2023-08-06T00:16:20;17.80;99.90
44117;DHT22;29781;49.480;8.512;2023-08-06T00:18:46;17.80;99.90
44117;DHT22;29781;49.480;8.512;2023-08-06T00:21:11;17.70;99.90
44117;DHT22;29781;49.480;8.512;2023-08-06T00:23:37;17.70;99.90
44117;DHT22;29781;49.480;8.512;2023-08-06T00:26:03;17.70;99.90
44117;DHT22;29781;49.480;8.512;2023-08-06T00:28:28;17.70;99.90
44117;DHT22;29781;49.480;8.512;2023-08-06T00:30:55;17.70;99.90
44117;DHT22;29781;49.480;8.512;2023-08-06T00:33:21;17.70;99.90
44117;DHT22;29781;49.480;8.512;2023-08-06T00:35:47;17.60;99.90
44117;DHT22;29781;49.480;8.512;2023-08-06T00:38:13;17.70;99.90
44117;DHT22;29781;49.480;8.512;2023-08-06T00:40:38;17.70;99.90
44117;DHT22;29781;49.480;8.512;2023-08-06T00:43:04;17.70;99.90
44117;DHT22;29781;49.480;8.512;2023-08-06T00:45:30;17.70;99.90
44117;DHT22;29781;49.480;8.512;2023-08-06T00:47:58;17.60;99.90
44117;DHT22;29781;49.480;8.512;2023-08-06T00:50:25;17.60;99.90
44117;DHT22;29781;49.480;8.512;2023-08-06T00:52:51;17.70;99.90
44117;DHT22;29781;49.480;8.512;2023-08-06T00:55:17;17.70;99.90
44117;DHT22;29781;49.480;8.512;2023-08-06T00:57:42;17.70;99.90
44117;DHT22;29781;49.480;8.512;2023-08-06T01:00:08;17.70;99.90
44117;DHT22;29781;49.480;8.512;2023-08-06T01:02:34;17.70;99.90
44117;DHT22;29781;49.480;8.512;2023-08-06T01:04:59;17.70;99.90
44117;DHT22;29781;49.480;8.512;2023-08-06T01:10:31;17.70;99.90
44117;DHT22;29781;49.480;8.512;2023-08-06T01:13:28;17.70;99.90
44117;DHT22;29781;49.480;8.512;2023-08-06T01:15:55;17.60;99.90
44117;DHT22;29781;49.480;8.512;2023-08-06T01:18:23;17.50;99.90
44117;DHT22;29781;49.480;8.512;2023-08-06T01:20:49;17.50;99.90
44117;DHT22;29781;49.480;8.512;2023-08-06T01:23:15;17.40;99.90
44117;DHT22;29781;49.480;8.512;2023-08-06T01:25:55;17.40;99.90
44117;DHT22;29781;49.480;8.512;2023-08-06T01:28:57;17.30;99.90
44117;DHT22;29781;49.480;8.512;2023-08-06T01:31:28;17.30;99.90
44117;DHT22;29781;49.480;8.512;2023-08-06T01:33:55;17.30;99.90
44117;DHT22;29781;49.480;8.512;2023-08-06T01:36:22;17.30;99.90
44117;DHT22;29781;49.480;8.512;2023-08-06T01:38:48;17.30;99.90
44117;DHT22;29781;49.480;8.512;2023-08-06T01:41:14;17.30;99.90
44117;DHT22;29781;49.480;8.512;2023-08-06T01:43:39;17.40;99.90
44117;DHT22;29781;49.480;8.512;2023-08-06T01:46:05;17.40;99.90
44117;DHT22;29781;49.480;8.512;2023-08-06T01:48:30;17.50;99.90
44117;DHT22;29781;49.480;8.512;2023-08-06T01:50:56;17.40;99.90
44117;DHT22;29781;49.480;8.512;2023-08-06T01:53:21;17.40;99.90
44117;DHT22;29781;49.480;8.512;2023-08-06T01:55:50;17.40;99.90
44117;DHT22;29781;49.480;8.512;2023-08-06T01:58:15;17.50;99.90
44117;DHT22;29781;49.480;8.512;2023-08-06T02:00:41;17.50;99.90
44117;DHT22;29781;49.480;8.512;2023-08-06T02:03:06;17.50;99.90
44117;DHT22;29781;49.480;8.512;2023-08-06T02:05:32;17.50;99.90
44117;DHT22;29781;49.480;8.512;2023-08-06T02:07:58;17.50;99.90
44117;DHT22;29781;49.480;8.512;2023-08-06T02:10:23;17.60;99.90
44117;DHT22;29781;49.480;8.512;2023-08-06T02:12:49;17.50;99.90
44117;DHT22;29781;49.480;8.512;2023-08-06T02:15:14;17.50;99.90
44117;DHT22;29781;49.480;8.512;2023-08-06T02:17:40;17.50;99.90
44117;DHT22;29781;49.480;8.512;2023-08-06T02:20:06;17.60;99.90
44117;DHT22;29781;49.480;8.512;2023-08-06T02:22:31;17.50;99.90
44117;DHT22;29781;49.480;8.512;2023-08-06T02:24:57;17.50;99.90
44117;DHT22;29781;49.480;8.512;2023-08-06T02:27:22;17.50;99.90
44117;DHT22;29781;49.480;8.512;2023-08-06T02:29:48;17.50;99.90
44117;DHT22;29781;49.480;8.512;2023-08-06T02:32:13;17.50;99.90
44117;DHT22;29781;49.480;8.512;2023-08-06T02:34:39;17.40;99.90
44117;DHT22;29781;49.480;8.512;2023-08-06T02:37:04;17.30;99.90
44117;DHT22;29781;49.480;8.512;2023-08-06T02:39:30;17.20;99.90
44117;DHT22;29781;49.480;8.512;2023-08-06T02:41:55;17.30;99.90
44117;DHT22;29781;49.480;8.512;2023-08-06T02:44:21;17.30;99.90
44117;DHT22;29781;49.480;8.512;2023-08-06T02:46:46;17.30;99.90
44117;DHT22;29781;49.480;8.512;2023-08-06T02:49:12;17.20;99.90
44117;DHT22;29781;49.480;8.512;2023-08-06T02:51:37;17.20;99.90
44117;DHT22;29781;49.480;8.512;2023-08-06T02:54:03;17.20;99.90
44117;DHT22;29781;49.480;8.512;2023-08-06T02:56:28;17.10;99.90
44117;DHT22;29781;49.480;8.512;2023-08-06T02:58:54;17.10;99.90
44117;DHT22;29781;49.480;8.512;2023-08-06T03:01:19;17.10;99.90
44117;DHT22;29781;49.480;8.512;2023-08-06T03:03:45;17.00;99.90
44117;DHT22;29781;49.480;8.512;2023-08-06T03:06:10;17.10;99.90
44117;DHT22;29781;49.480;8.512;2023-08-06T03:08:36;17.00;99.90
44117;DHT22;29781;49.480;8.512;2023-08-06T03:11:02;17.00;99.90
44117;DHT22;29781;49.480;8.512;2023-08-06T03:13:27;16.90;99.90
44117;DHT22;29781;49.480;8.512;2023-08-06T03:15:58;16.90;99.90
44117;DHT22;29781;49.480;8.512;2023-08-06T03:18:23;16.90;99.90
44117;DHT22;29781;49.480;8.512;2023-08-06T03:20:51;16.90;99.90
44117;DHT22;29781;49.480;8.512;2023-08-06T03:23:17;16.90;99.90
44117;DHT22;29781;49.480;8.512;2023-08-06T03:25:42;16.90;99.90
44117;DHT22;29781;49.480;8.512;2023-08-06T03:28:08;16.90;99.90
44117;DHT22;29781;49.480;8.512;2023-08-06T03:30:33;16.90;99.90
44117;DHT22;29781;49.480;8.512;2023-08-06T03:32:59;16.90;99.90
44117;DHT22;29781;49.480;8.512;2023-08-06T03:35:24;16.90;99.90
44117;DHT22;29781;49.480;8.512;2023-08-06T03:37:50;16.90;99.90
44117;DHT22;29781;49.480;8.512;2023-08-06T03:40:15;16.90;99.90
44117;DHT22;29781;49.480;8.512;2023-08-06T03:42:41;16.80;99.90
44117;DHT22;29781;49.480;8.512;2023-08-06T03:45:07;16.80;99.90
44117;DHT22;29781;49.480;8.512;2023-08-06T03:47:33;16.90;99.90
44117;DHT22;29781;49.480;8.512;2023-08-06T03:49:58;16.90;99.90
44117;DHT22;29781;49.480;8.512;2023-08-06T03:52:24;16.90;99.90
44117;DHT22;29781;49.480;8.512;2023-08-06T03:54:49;16.80;99.90
44117;DHT22;29781;49.480;8.512;2023-08-06T03:57:15;16.80;99.90
44117;DHT22;29781;49.480;8.512;2023-08-06T03:59:41;16.90;99.90
44117;DHT22;29781;49.480;8.512;2023-08-06T04:02:06;17.00;99.90
44117;DHT22;29781;49.480;8.512;2023-08-06T04:04:32;16.90;99.90
44117;DHT22;29781;49.480;8.512;2023-08-06T04:06:57;17.00;99.90
44117;DHT22;29781;49.480;8.512;2023-08-06T04:09:23;17.00;99.90
44117;DHT22;29781;49.480;8.512;2023-08-06T04:11:48;16.90;99.90
44117;DHT22;29781;49.480;8.512;2023-08-06T04:14:14;16.90;99.90
44117;DHT22;29781;49.480;8.512;2023-08-06T04:16:39;16.90;99.90
44117;DHT22;29781;49.480;8.512;2023-08-06T04:19:05;16.80;99.90
44117;DHT22;29781;49.480;8.512;2023-08-06T04:21:30;16.80;99.90
44117;DHT22;29781;49.480;8.512;2023-08-06T04:23:56;16.80;99.90
44117;DHT22;29781;49.480;8.512;2023-08-06T04:26:22;16.70;99.90
44117;DHT22;29781;49.480;8.512;2023-08-06T04:28:47;16.60;99.90
44117;DHT22;29781;49.480;8.512;2023-08-06T04:31:14;16.60;99.90
44117;DHT22;29781;49.480;8.512;2023-08-06T04:33:39;16.60;99.90
44117;DHT22;29781;49.480;8.512;2023-08-06T04:36:06;16.50;99.90
44117;DHT22;29781;49.480;8.512;2023-08-06T04:38:32;16.50;99.90
44117;DHT22;29781;49.480;8.512;2023-08-06T04:40:58;16.50;99.90
44117;DHT22;29781;49.480;8.512;2023-08-06T04:43:23;16.60;99.90
44117;DHT22;29781;49.480;8.512;2023-08-06T04:45:51;16.60;99.90
44117;DHT22;29781;49.480;8.512;2023-08-06T04:48:18;16.50;99.90
44117;DHT22;29781;49.480;8.512;2023-08-06T04:50:45;16.60;99.90
44117;DHT22;29781;49.480;8.512;2023-08-06T04:53:10;16.60;99.90
44117;DHT22;29781;49.480;8.512;2023-08-06T04:55:36;16.60;99.90
44117;DHT22;29781;49.480;8.512;2023-08-06T04:58:01;16.60;99.90
44117;DHT22;29781;49.480;8.512;2023-08-06T05:00:27;16.60;99.90
44117;DHT22;29781;49.480;8.512;2023-08-06T05:02:53;16.50;99.90
44117;DHT22;29781;49.480;8.512;2023-08-06T05:05:18;16.50;99.90
44117;DHT22;29781;49.480;8.512;2023-08-06T05:07:47;16.50;99.90
44117;DHT22;29781;49.480;8.512;2023-08-06T05:10:13;16.50;99.90
44117;DHT22;29781;49.480;8.512;2023-08-06T05:12:39;16.50;99.90
44117;DHT22;29781;49.480;8.512;2023-08-06T05:15:04;16.50;99.90
44117;DHT22;29781;49.480;8.512;2023-08-06T05:17:30;16.50;99.90
44117;DHT22;29781;49.480;8.512;2023-08-06T05:19:55;16.40;99.90
44117;DHT22;29781;49.480;8.512;2023-08-06T05:22:21;16.40;99.90
44117;DHT22;29781;49.480;8.512;2023-08-06T05:24:46;16.30;99.90
44117;DHT22;29781;49.480;8.512;2023-08-06T05:27:12;16.30;99.90
44117;DHT22;29781;49.480;8.512;2023-08-06T05:29:37;16.30;99.90
44117;DHT22;29781;49.480;8.512;2023-08-06T05:32:03;16.30;99.90
44117;DHT22;29781;49.480;8.512;2023-08-06T05:34:29;16.20;99.90
44117;DHT22;29781;49.480;8.512;2023-08-06T05:36:54;16.20;99.90
44117;DHT22;29781;49.480;8.512;2023-08-06T05:39:20;16.20;99.90
44117;DHT22;29781;49.480;8.512;2023-08-06T05:41:45;16.20;99.90
44117;DHT22;29781;49.480;8.512;2023-08-06T05:44:11;16.10;99.90
44117;DHT22;29781;49.480;8.512;2023-08-06T05:46:36;16.10;99.90
44117;DHT22;29781;49.480;8.512;2023-08-06T05:49:02;16.10;99.90
44117;DHT22;29781;49.480;8.512;2023-08-06T05:51:28;16.00;99.90
44117;DHT22;29781;49.480;8.512;2023-08-06T05:53:53;16.00;99.90
44117;DHT22;29781;49.480;8.512;2023-08-06T05:56:19;16.00;99.90
44117;DHT22;29781;49.480;8.512;2023-08-06T05:58:44;16.00;99.90
44117;DHT22;29781;49.480;8.512;2023-08-06T06:01:11;16.00;99.90
44117;DHT22;29781;49.480;8.512;2023-08-06T06:03:37;16.00;99.90
44117;DHT22;29781;49.480;8.512;2023-08-06T06:06:03;16.00;99.90
44117;DHT22;29781;49.480;8.512;2023-08-06T06:08:28;15.90;99.90
44117;DHT22;29781;49.480;8.512;2023-08-06T06:10:54;16.00;99.90
44117;DHT22;29781;49.480;8.512;2023-08-06T06:13:19;15.90;99.90
44117;DHT22;29781;49.480;8.512;2023-08-06T06:15:46;15.80;99.90
44117;DHT22;29781;49.480;8.512;2023-08-06T06:18:12;15.80;99.90
44117;DHT22;29781;49.480;8.512;2023-08-06T06:20:38;15.70;99.90
44117;DHT22;29781;49.480;8.512;2023-08-06T06:23:04;15.70;99.90
44117;DHT22;29781;49.480;8.512;2023-08-06T06:25:29;15.70;99.90
44117;DHT22;29781;49.480;8.512;2023-08-06T06:27:55;15.70;99.90
44117;DHT22;29781;49.480;8.512;2023-08-06T06:30:20;15.60;99.90
44117;DHT22;29781;49.480;8.512;2023-08-06T06:32:46;15.70;99.90
44117;DHT22;29781;49.480;8.512;2023-08-06T06:35:12;15.80;99.90
44117;DHT22;29781;49.480;8.512;2023-08-06T06:37:38;15.80;99.90
44117;DHT22;29781;49.480;8.512;2023-08-06T06:40:04;15.80;99.90
44117;DHT22;29781;49.480;8.512;2023-08-06T06:42:29;15.80;99.90
44117;DHT22;29781;49.480;8.512;2023-08-06T06:44:55;15.70;99.90
44117;DHT22;29781;49.480;8.512;2023-08-06T06:47:20;15.80;99.90
44117;DHT22;29781;49.480;8.512;2023-08-06T06:49:46;15.80;99.90
44117;DHT22;29781;49.480;8.512;2023-08-06T06:52:11;15.80;99.90
44117;DHT22;29781;49.480;8.512;2023-08-06T06:54:37;15.80;99.90
44117;DHT22;29781;49.480;8.512;2023-08-06T06:57:02;15.80;99.90
44117;DHT22;29781;49.480;8.512;2023-08-06T06:59:28;15.80;99.90
44117;DHT22;29781;49.480;8.512;2023-08-06T07:01:54;15.80;99.90
44117;DHT22;29781;49.480;8.512;2023-08-06T07:04:19;15.80;99.90
44117;DHT22;29781;49.480;8.512;2023-08-06T07:06:45;15.90;99.90
44117;DHT22;29781;49.480;8.512;2023-08-06T07:09:10;16.00;99.90
44117;DHT22;29781;49.480;8.512;2023-08-06T07:11:36;16.00;99.90
44117;DHT22;29781;49.480;8.512;2023-08-06T07:14:01;16.00;99.90
44117;DHT22;29781;49.480;8.512;2023-08-06T07:16:27;16.10;99.90
44117;DHT22;29781;49.480;8.512;2023-08-06T07:18:53;16.20;99.90
44117;DHT22;29781;49.480;8.512;2023-08-06T07:21:19;16.20;99.90
44117;DHT22;29781;49.480;8.512;2023-08-06T07:23:45;16.30;99.90
44117;DHT22;29781;49.480;8.512;2023-08-06T07:26:10;16.30;99.90
44117;DHT22;29781;49.480;8.512;2023-08-06T07:28:36;16.30;99.90
44117;DHT22;29781;49.480;8.512;2023-08-06T07:31:03;16.30;99.90
44117;DHT22;29781;49.480;8.512;2023-08-06T07:33:28;16.30;99.90
44117;DHT22;29781;49.480;8.512;2023-08-06T07:35:54;16.30;99.90
44117;DHT22;29781;49.480;8.512;2023-08-06T07:38:19;16.30;99.90
44117;DHT22;29781;49.480;8.512;2023-08-06T07:40:45;16.40;99.90
44117;DHT22;29781;49.480;8.512;2023-08-06T07:43:10;16.50;99.90
44117;DHT22;29781;49.480;8.512;2023-08-06T07:45:36;16.60;99.90
44117;DHT22;29781;49.480;8.512;2023-08-06T07:48:03;16.60;99.90
44117;DHT22;29781;49.480;8.512;2023-08-06T07:50:28;16.60;99.90
44117;DHT22;29781;49.480;8.512;2023-08-06T07:52:54;16.50;99.90
44117;DHT22;29781;49.480;8.512;2023-08-06T07:55:20;16.40;99.90
44117;DHT22;29781;49.480;8.512;2023-08-06T07:57:45;16.40;99.90
44117;DHT22;29781;49.480;8.512;2023-08-06T08:00:11;16.30;99.90
44117;DHT22;29781;49.480;8.512;2023-08-06T08:02:36;16.30;99.90
44117;DHT22;29781;49.480;8.512;2023-08-06T08:05:02;16.30;99.90
44117;DHT22;29781;49.480;8.512;2023-08-06T08:07:27;16.30;99.90
44117;DHT22;29781;49.480;8.512;2023-08-06T08:09:56;16.40;99.90
44117;DHT22;29781;49.480;8.512;2023-08-06T08:12:21;16.50;99.90
44117;DHT22;29781;49.480;8.512;2023-08-06T08:14:47;16.50;99.90
44117;DHT22;29781;49.480;8.512;2023-08-06T08:17:12;16.60;99.90
44117;DHT22;29781;49.480;8.512;2023-08-06T08:19:40;16.70;99.90
44117;DHT22;29781;49.480;8.512;2023-08-06T08:22:05;16.80;99.90
44117;DHT22;29781;49.480;8.512;2023-08-06T08:24:31;16.90;99.90
44117;DHT22;29781;49.480;8.512;2023-08-06T08:26:57;16.90;99.90
44117;DHT22;29781;49.480;8.512;2023-08-06T08:29:22;16.90;99.90
44117;DHT22;29781;49.480;8.512;2023-08-06T08:31:48;16.90;99.90
44117;DHT22;29781;49.480;8.512;2023-08-06T08:34:18;16.90;99.90
44117;DHT22;29781;49.480;8.512;2023-08-06T08:36:44;16.90;99.90
44117;DHT22;29781;49.480;8.512;2023-08-06T08:39:13;16.70;99.90
44117;DHT22;29781;49.480;8.512;2023-08-06T08:41:39;16.60;99.90
44117;DHT22;29781;49.480;8.512;2023-08-06T08:44:08;16.90;99.90
44117;DHT22;29781;49.480;8.512;2023-08-06T08:46:37;17.20;99.90
44117;DHT22;29781;49.480;8.512;2023-08-06T08:49:04;17.50;99.90
44117;DHT22;29781;49.480;8.512;2023-08-06T08:51:30;17.60;99.90
44117;DHT22;29781;49.480;8.512;2023-08-06T08:53:56;17.60;99.90
44117;DHT22;29781;49.480;8.512;2023-08-06T08:56:23;17.80;99.90
44117;DHT22;29781;49.480;8.512;2023-08-06T08:58:49;17.80;99.90
44117;DHT22;29781;49.480;8.512;2023-08-06T09:01:15;17.70;99.90
44117;DHT22;29781;49.480;8.512;2023-08-06T09:03:43;17.70;99.90
44117;DHT22;29781;49.480;8.512;2023-08-06T09:06:11;17.70;99.90
44117;DHT22;29781;49.480;8.512;2023-08-06T09:08:41;17.70;99.90
44117;DHT22;29781;49.480;8.512;2023-08-06T09:11:09;17.70;99.90
44117;DHT22;29781;49.480;8.512;2023-08-06T09:13:37;17.70;99.90
44117;DHT22;29781;49.480;8.512;2023-08-06T09:16:02;17.70;99.90
44117;DHT22;29781;49.480;8.512;2023-08-06T09:18:30;17.70;99.90
44117;DHT22;29781;49.480;8.512;2023-08-06T09:20:56;17.50;99.90
44117;DHT22;29781;49.480;8.512;2023-08-06T09:23:28;17.40;99.90
44117;DHT22;29781;49.480;8.512;2023-08-06T09:25:56;17.50;99.90
44117;DHT22;29781;49.480;8.512;2023-08-06T09:28:21;17.60;99.90
44117;DHT22;29781;49.480;8.512;2023-08-06T09:30:47;17.80;99.90
44117;DHT22;29781;49.480;8.512;2023-08-06T09:33:18;17.90;99.90
44117;DHT22;29781;49.480;8.512;2023-08-06T09:35:45;18.40;99.90
44117;DHT22;29781;49.480;8.512;2023-08-06T09:38:10;18.70;99.90
44117;DHT22;29781;49.480;8.512;2023-08-06T09:40:37;18.70;99.90
44117;DHT22;29781;49.480;8.512;2023-08-06T09:43:03;18.60;99.90
44117;DHT22;29781;49.480;8.512;2023-08-06T09:45:35;18.40;99.90
44117;DHT22;29781;49.480;8.512;2023-08-06T09:48:08;18.00;99.90
44117;DHT22;29781;49.480;8.512;2023-08-06T09:50:37;17.70;99.90
44117;DHT22;29781;49.480;8.512;2023-08-06T09:53:04;17.40;99.90
44117;DHT22;29781;49.480;8.512;2023-08-06T09:55:30;17.10;99.90
44117;DHT22;29781;49.480;8.512;2023-08-06T09:57:55;16.70;99.90
44117;DHT22;29781;49.480;8.512;2023-08-06T10:00:22;16.60;99.90
44117;DHT22;29781;49.480;8.512;2023-08-06T10:02:49;16.50;99.90
44117;DHT22;29781;49.480;8.512;2023-08-06T10:05:17;16.60;99.90
44117;DHT22;29781;49.480;8.512;2023-08-06T10:07:44;16.60;99.90
44117;DHT22;29781;49.480;8.512;2023-08-06T10:10:10;16.70;99.90
44117;DHT22;29781;49.480;8.512;2023-08-06T10:12:45;16.60;99.90
44117;DHT22;29781;49.480;8.512;2023-08-06T10:15:15;16.70;99.90
44117;DHT22;29781;49.480;8.512;2023-08-06T10:17:42;16.70;99.90
44117;DHT22;29781;49.480;8.512;2023-08-06T10:20:09;16.70;99.90
44117;DHT22;29781;49.480;8.512;2023-08-06T10:22:35;16.60;99.90
44117;DHT22;29781;49.480;8.512;2023-08-06T10:25:02;16.50;99.90
44117;DHT22;29781;49.480;8.512;2023-08-06T10:32:48;16.50;99.90
44117;DHT22;29781;49.480;8.512;2023-08-06T10:35:30;16.40;99.90
44117;DHT22;29781;49.480;8.512;2023-08-06T10:38:03;16.40;99.90
44117;DHT22;29781;49.480;8.512;2023-08-06T10:40:29;16.50;99.90
44117;DHT22;29781;49.480;8.512;2023-08-06T10:42:58;16.40;99.90
44117;DHT22;29781;49.480;8.512;2023-08-06T10:45:24;16.50;99.90
44117;DHT22;29781;49.480;8.512;2023-08-06T10:47:54;16.50;99.90
44117;DHT22;29781;49.480;8.512;2023-08-06T10:50:20;16.50;99.90
44117;DHT22;29781;49.480;8.512;2023-08-06T10:52:46;16.50;99.90
44117;DHT22;29781;49.480;8.512;2023-08-06T10:55:22;16.60;99.90
44117;DHT22;29781;49.480;8.512;2023-08-06T10:57:48;16.60;99.90
44117;DHT22;29781;49.480;8.512;2023-08-06T11:00:14;16.60;99.90
44117;DHT22;29781;49.480;8.512;2023-08-06T11:02:39;16.50;99.90
44117;DHT22;29781;49.480;8.512;2023-08-06T11:05:09;16.40;99.90
44117;DHT22;29781;49.480;8.512;2023-08-06T11:07:36;16.50;99.90
44117;DHT22;29781;49.480;8.512;2023-08-06T11:10:07;16.60;99.90
44117;DHT22;29781;49.480;8.512;2023-08-06T11:12:33;16.60;99.90
44117;DHT22;29781;49.480;8.512;2023-08-06T11:15:00;16.60;99.90
44117;DHT22;29781;49.480;8.512;2023-08-06T11:17:30;16.60;99.90
44117;DHT22;29781;49.480;8.512;2023-08-06T11:19:59;16.70;99.90
44117;DHT22;29781;49.480;8.512;2023-08-06T11:22:25;16.80;99.90
44117;DHT22;29781;49.480;8.512;2023-08-06T11:24:50;16.90;99.90
44117;DHT22;29781;49.480;8.512;2023-08-06T11:27:16;16.90;99.90
44117;DHT22;29781;49.480;8.512;2023-08-06T11:29:43;16.90;99.90
44117;DHT22;29781;49.480;8.512;2023-08-06T11:32:10;16.90;99.90
44117;DHT22;29781;49.480;8.512;2023-08-06T11:34:36;16.90;99.90
44117;DHT22;29781;49.480;8.512;2023-08-06T11:37:06;17.00;99.90
44117;DHT22;29781;49.480;8.512;2023-08-06T11:39:36;17.10;99.90
44117;DHT22;29781;49.480;8.512;2023-08-06T11:42:06;17.20;99.90
44117;DHT22;29781;49.480;8.512;2023-08-06T11:44:33;17.30;99.90
44117;DHT22;29781;49.480;8.512;2023-08-06T11:47:00;17.30;99.90
44117;DHT22;29781;49.480;8.512;2023-08-06T11:49:43;17.20;99.90
44117;DHT22;29781;49.480;8.512;2023-08-06T11:52:19;17.20;99.90
44117;DHT22;29781;49.480;8.512;2023-08-06T11:54:47;17.30;99.90
44117;DHT22;29781;49.480;8.512;2023-08-06T11:57:13;17.30;99.90
44117;DHT22;29781;49.480;8.512;2023-08-06T11:59:39;17.30;99.90
44117;DHT22;29781;49.480;8.512;2023-08-06T12:02:08;17.30;99.90
44117;DHT22;29781;49.480;8.512;2023-08-06T12:04:58;17.30;99.90
44117;DHT22;29781;49.480;8.512;2023-08-06T12:07:29;17.30;99.90
44117;DHT22;29781;49.480;8.512;2023-08-06T12:09:56;17.30;99.90
44117;DHT22;29781;49.480;8.512;2023-08-06T12:12:21;17.40;99.90
44117;DHT22;29781;49.480;8.512;2023-08-06T12:14:47;17.40;99.90
44117;DHT22;29781;49.480;8.512;2023-08-06T12:17:12;17.50;99.90
44117;DHT22;29781;49.480;8.512;2023-08-06T12:19:38;17.50;99.90
44117;DHT22;29781;49.480;8.512;2023-08-06T12:22:03;17.50;99.90
44117;DHT22;29781;49.480;8.512;2023-08-06T12:24:29;17.40;99.90
44117;DHT22;29781;49.480;8.512;2023-08-06T12:26:57;17.40;99.90
44117;DHT22;29781;49.480;8.512;2023-08-06T12:29:24;17.40;99.90
44117;DHT22;29781;49.480;8.512;2023-08-06T12:31:50;17.40;99.90
44117;DHT22;29781;49.480;8.512;2023-08-06T12:34:15;17.40;99.90
44117;DHT22;29781;49.480;8.512;2023-08-06T12:36:41;17.40;99.90
44117;DHT22;29781;49.480;8.512;2023-08-06T12:39:06;17.50;99.90
44117;DHT22;29781;49.480;8.512;2023-08-06T12:41:32;17.50;99.90
44117;DHT22;29781;49.480;8.512;2023-08-06T12:43:57;17.60;99.90
44117;DHT22;29781;49.480;8.512;2023-08-06T12:46:23;17.60;99.90
44117;DHT22;29781;49.480;8.512;2023-08-06T12:48:49;17.60;99.90
44117;DHT22;29781;49.480;8.512;2023-08-06T12:51:14;17.50;99.90
44117;DHT22;29781;49.480;8.512;2023-08-06T12:53:40;17.50;99.90
44117;DHT22;29781;49.480;8.512;2023-08-06T12:56:05;17.60;99.90
44117;DHT22;29781;49.480;8.512;2023-08-06T12:58:31;17.60;99.90
44117;DHT22;29781;49.480;8.512;2023-08-06T13:00:56;17.50;99.90
44117;DHT22;29781;49.480;8.512;2023-08-06T13:03:22;17.50;99.90
44117;DHT22;29781;49.480;8.512;2023-08-06T13:05:48;17.40;99.90
44117;DHT22;29781;49.480;8.512;2023-08-06T13:08:13;17.40;99.90
44117;DHT22;29781;49.480;8.512;2023-08-06T13:10:39;17.30;99.90
44117;DHT22;29781;49.480;8.512;2023-08-06T13:13:04;17.40;99.90
44117;DHT22;29781;49.480;8.512;2023-08-06T13:15:30;17.40;99.90
44117;DHT22;29781;49.480;8.512;2023-08-06T13:17:56;17.30;99.90
44117;DHT22;29781;49.480;8.512;2023-08-06T13:20:21;17.30;99.90
44117;DHT22;29781;49.480;8.512;2023-08-06T13:22:48;17.40;99.90
44117;DHT22;29781;49.480;8.512;2023-08-06T13:25:15;17.40;99.90
44117;DHT22;29781;49.480;8.512;2023-08-06T13:27:42;17.40;99.90
44117;DHT22;29781;49.480;8.512;2023-08-06T13:30:09;17.40;99.90
44117;DHT22;29781;49.480;8.512;2023-08-06T13:32:35;17.40;99.90
44117;DHT22;29781;49.480;8.512;2023-08-06T13:35:03;17.40;99.90
44117;DHT22;29781;49.480;8.512;2023-08-06T13:37:29;17.30;99.90
44117;DHT22;29781;49.480;8.512;2023-08-06T13:39:55;17.30;99.90
44117;DHT22;29781;49.480;8.512;2023-08-06T13:42:20;17.20;99.90
44117;DHT22;29781;49.480;8.512;2023-08-06T13:44:46;17.10;99.90
44117;DHT22;29781;49.480;8.512;2023-08-06T13:47:11;17.10;99.90
44117;DHT22;29781;49.480;8.512;2023-08-06T13:49:37;17.10;99.90
44117;DHT22;29781;49.480;8.512;2023-08-06T13:52:03;17.10;99.90
44117;DHT22;29781;49.480;8.512;2023-08-06T13:54:28;17.10;99.90
44117;DHT22;29781;49.480;8.512;2023-08-06T13:56:54;17.20;99.90
44117;DHT22;29781;49.480;8.512;2023-08-06T13:59:19;17.20;99.90
44117;DHT22;29781;49.480;8.512;2023-08-06T14:01:45;17.20;99.90
44117;DHT22;29781;49.480;8.512;2023-08-06T14:04:11;17.20;99.90
44117;DHT22;29781;49.480;8.512;2023-08-06T14:06:37;17.30;99.90
44117;DHT22;29781;49.480;8.512;2023-08-06T14:09:02;17.10;99.90
44117;DHT22;29781;49.480;8.512;2023-08-06T14:11:28;17.20;99.90
44117;DHT22;29781;49.480;8.512;2023-08-06T14:13:53;17.20;99.90
44117;DHT22;29781;49.480;8.512;2023-08-06T14:16:19;17.20;99.90
44117;DHT22;29781;49.480;8.512;2023-08-06T14:18:45;17.00;99.90
44117;DHT22;29781;49.480;8.512;2023-08-06T14:21:10;17.00;99.90
44117;DHT22;29781;49.480;8.512;2023-08-06T14:23:36;17.00;99.90
44117;DHT22;29781;49.480;8.512;2023-08-06T14:26:01;17.10;99.90
44117;DHT22;29781;49.480;8.512;2023-08-06T14:28:27;17.00;99.90
44117;DHT22;29781;49.480;8.512;2023-08-06T14:30:52;17.00;99.90
44117;DHT22;29781;49.480;8.512;2023-08-06T14:33:18;17.00;99.90
44117;DHT22;29781;49.480;8.512;2023-08-06T14:35:44;17.00;99.90
44117;DHT22;29781;49.480;8.512;2023-08-06T14:38:09;17.00;99.90
44117;DHT22;29781;49.480;8.512;2023-08-06T14:40:35;17.10;99.90
44117;DHT22;29781;49.480;8.512;2023-08-06T14:43:05;17.10;99.90
44117;DHT22;29781;49.480;8.512;2023-08-06T14:45:31;17.20;99.90
44117;DHT22;29781;49.480;8.512;2023-08-06T14:47:56;17.30;99.90
44117;DHT22;29781;49.480;8.512;2023-08-06T14:50:22;17.30;99.90
44117;DHT22;29781;49.480;8.512;2023-08-06T14:52:48;17.20;99.90
44117;DHT22;29781;49.480;8.512;2023-08-06T14:55:24;17.30;99.90
44117;DHT22;29781;49.480;8.512;2023-08-06T14:57:50;17.40;99.90
44117;DHT22;29781;49.480;8.512;2023-08-06T15:00:15;17.40;99.90
44117;DHT22;29781;49.480;8.512;2023-08-06T15:02:41;17.40;99.90
44117;DHT22;29781;49.480;8.512;2023-08-06T15:05:06;17.40;99.90
44117;DHT22;29781;49.480;8.512;2023-08-06T15:07:32;17.40;99.90
44117;DHT22;29781;49.480;8.512;2023-08-06T15:10:01;17.50;99.90
44117;DHT22;29781;49.480;8.512;2023-08-06T15:12:26;17.40;99.90
44117;DHT22;29781;49.480;8.512;2023-08-06T15:14:52;17.40;99.90
44117;DHT22;29781;49.480;8.512;2023-08-06T15:17:22;17.40;99.90
44117;DHT22;29781;49.480;8.512;2023-08-06T15:19:47;17.40;99.90
44117;DHT22;29781;49.480;8.512;2023-08-06T15:22:13;17.40;99.90
44117;DHT22;29781;49.480;8.512;2023-08-06T15:24:39;17.30;99.90
44117;DHT22;29781;49.480;8.512;2023-08-06T15:27:08;17.20;99.90
44117;DHT22;29781;49.480;8.512;2023-08-06T15:29:33;17.10;99.90
44117;DHT22;29781;49.480;8.512;2023-08-06T15:31:59;17.10;99.90
44117;DHT22;29781;49.480;8.512;2023-08-06T15:34:24;17.10;99.90